createdAt,value
2023-02-26T00:00:48.785Z,-0.05
2023-02-26T00:01:52.389Z,-0.05
2023-02-26T00:04:33.814Z,-0.06
2023-02-26T00:05:23.020Z,-0.15
2023-02-26T00:06:26.497Z,-0.16
2023-02-26T00:08:50.614Z,-0.06
2023-02-26T00:09:50.297Z,-0.11
2023-02-26T00:10:50.349Z,-0.05
2023-02-26T00:11:56.183Z,-0.06
2023-02-26T00:12:52.875Z,0.03
2023-02-26T00:15:00.444Z,-0.04
2023-02-26T00:15:50.333Z,-0.01
2023-02-26T00:16:50.278Z,0.00
2023-02-26T00:17:50.911Z,0.07
2023-02-26T00:18:50.294Z,0.07
2023-02-26T00:20:02.495Z,0.07
2023-02-26T00:20:54.395Z,0.13
2023-02-26T00:21:57.224Z,0.12
2023-02-26T00:22:51.600Z,0.20
2023-02-26T00:23:50.204Z,0.21
2023-02-26T00:25:03.002Z,0.27
2023-02-26T00:25:56.220Z,0.21
2023-02-26T00:26:51.254Z,0.27
2023-02-26T00:27:50.549Z,0.33
2023-02-26T00:28:53.785Z,0.18
2023-02-26T00:29:50.308Z,0.16
2023-02-26T00:30:50.261Z,0.15
2023-02-26T00:31:56.125Z,0.09
2023-02-26T00:32:53.233Z,0.16
2023-02-26T00:33:50.189Z,0.13
2023-02-26T00:34:50.142Z,0.06
2023-02-26T00:35:50.080Z,0.20
2023-02-26T00:36:59.529Z,0.27
2023-02-26T00:39:06.519Z,0.20
2023-02-26T00:39:51.026Z,0.21
2023-02-26T00:40:53.110Z,0.24
2023-02-26T00:41:51.009Z,0.16
2023-02-26T00:42:50.082Z,0.15
2023-02-26T00:43:50.025Z,0.23
2023-02-26T00:44:50.143Z,0.25
2023-02-26T00:45:51.464Z,0.13
2023-02-26T00:46:51.000Z,0.21
2023-02-26T00:47:50.668Z,0.07
2023-02-26T00:48:53.798Z,0.10
2023-02-26T00:49:50.072Z,0.16
2023-02-26T00:50:52.066Z,0.02
2023-02-26T00:51:50.433Z,-0.01
2023-02-26T00:52:50.200Z,-0.09
2023-02-26T00:53:52.184Z,-0.12
2023-02-26T00:54:50.089Z,-0.13
2023-02-26T00:55:50.734Z,-0.22
2023-02-26T00:56:53.842Z,-0.33
2023-02-26T00:58:22.146Z,-0.33
2023-02-26T00:58:57.632Z,-0.47
2023-02-26T00:59:55.325Z,-0.45
2023-02-26T01:00:54.221Z,-0.45
2023-02-26T01:01:58.015Z,-0.45
2023-02-26T01:03:00.639Z,-0.48
2023-02-26T01:03:56.128Z,-0.62
2023-02-26T01:06:17.764Z,-0.55
2023-02-26T01:07:17.173Z,-0.68
2023-02-26T01:08:19.231Z,-0.63
2023-02-26T01:09:20.243Z,-0.59
2023-02-26T01:10:18.228Z,-0.63
2023-02-26T01:11:19.492Z,-0.59
2023-02-26T01:12:24.769Z,-0.69
2023-02-26T01:13:26.427Z,-0.66
2023-02-26T01:14:20.985Z,-0.77
2023-02-26T01:15:27.381Z,-0.80
2023-02-26T01:16:30.939Z,-0.81
2023-02-26T01:17:25.570Z,-0.86
2023-02-26T01:18:29.920Z,-0.94
2023-02-26T01:20:25.856Z,-0.92
2023-02-26T01:21:29.535Z,-1.00
2023-02-26T01:22:30.328Z,-1.07
2023-02-26T01:23:28.304Z,-1.02
2023-02-26T01:24:24.834Z,-1.06
2023-02-26T01:25:25.877Z,-1.13
2023-02-26T01:26:25.285Z,-1.15
2023-02-26T01:27:26.753Z,-1.20
2023-02-26T01:28:29.421Z,-1.23
2023-02-26T01:29:32.501Z,-1.27
2023-02-26T01:31:45.489Z,-1.27
2023-02-26T01:32:29.865Z,-1.07
2023-02-26T01:33:30.886Z,-1.31
2023-02-26T01:34:23.615Z,-1.23
2023-02-26T01:35:30.444Z,-1.31
2023-02-26T01:36:30.793Z,-1.33
2023-02-26T01:37:30.470Z,-1.35
2023-02-26T01:38:29.199Z,-1.36
2023-02-26T01:39:32.570Z,-1.35
2023-02-26T01:41:30.383Z,-1.41
2023-02-26T01:43:26.962Z,-1.53
2023-02-26T01:44:28.325Z,-1.43
2023-02-26T01:45:27.705Z,-1.43
2023-02-26T01:48:34.152Z,-1.38
2023-02-26T01:49:32.818Z,-1.38
2023-02-26T01:50:29.995Z,-1.49
2023-02-26T01:51:20.433Z,-1.39
2023-02-26T01:52:28.299Z,-1.53
2023-02-26T01:53:31.018Z,-1.48
2023-02-26T01:54:27.531Z,-1.38
2023-02-26T01:55:34.926Z,-1.57
2023-02-26T01:57:52.366Z,-1.62
2023-02-26T01:59:34.630Z,-1.42
2023-02-26T02:00:31.836Z,-1.36
2023-02-26T02:01:31.895Z,-1.48
2023-02-26T02:02:39.909Z,-1.30
2023-02-26T02:03:34.014Z,-1.39
2023-02-26T02:04:25.015Z,-1.33
2023-02-26T02:05:34.299Z,-1.28
2023-02-26T02:06:28.894Z,-1.33
2023-02-26T02:07:27.522Z,-1.35
2023-02-26T02:08:30.008Z,-1.36
2023-02-26T02:09:28.397Z,-1.25
2023-02-26T02:12:28.820Z,-1.21
2023-02-26T02:13:41.428Z,-1.35
2023-02-26T02:14:29.055Z,-1.30
2023-02-26T02:15:32.764Z,-1.33
2023-02-26T02:18:30.191Z,-1.36
2023-02-26T02:19:26.466Z,-1.39
2023-02-26T02:20:55.164Z,-1.31
2023-02-26T02:21:29.238Z,-1.20
2023-02-26T02:22:32.918Z,-1.27
2023-02-26T02:25:18.587Z,-1.09
2023-02-26T02:26:19.154Z,-1.10
2023-02-26T02:29:31.161Z,-0.95
2023-02-26T02:30:36.660Z,-0.87
2023-02-26T02:31:32.191Z,-0.77
2023-02-26T02:32:34.930Z,-0.77
2023-02-26T02:33:30.709Z,-0.80
2023-02-26T02:34:35.086Z,-0.83
2023-02-26T02:36:14.423Z,-0.89
2023-02-26T02:37:42.895Z,-0.89
2023-02-26T02:38:39.674Z,-1.03
2023-02-26T02:39:47.447Z,-0.97
2023-02-26T02:40:42.371Z,-1.03
2023-02-26T02:41:43.849Z,-1.15
2023-02-26T02:42:39.721Z,-1.06
2023-02-26T02:43:44.452Z,-1.15
2023-02-26T02:44:48.090Z,-1.07
2023-02-26T02:45:39.166Z,-1.00
2023-02-26T02:46:44.184Z,-1.05
2023-02-26T02:47:41.892Z,-1.12
2023-02-26T02:48:38.014Z,-1.18
2023-02-26T02:49:47.512Z,-1.18
2023-02-26T02:50:37.922Z,-1.24
2023-02-26T02:52:37.164Z,-1.27
2023-02-26T02:53:33.392Z,-1.15
2023-02-26T02:54:36.523Z,-1.18
2023-02-26T02:55:38.581Z,-1.24
2023-02-26T02:56:37.045Z,-1.23
2023-02-26T02:57:37.441Z,-1.09
2023-02-26T02:58:33.853Z,-1.18
2023-02-26T02:59:30.403Z,-1.06
2023-02-26T03:00:33.531Z,-1.03
2023-02-26T03:01:35.697Z,-1.09
2023-02-26T03:02:33.598Z,-0.95
2023-02-26T03:03:30.558Z,-1.02
2023-02-26T03:04:36.025Z,-1.12
2023-02-26T03:06:41.896Z,-1.03
2023-02-26T03:07:34.385Z,-0.95
2023-02-26T03:08:37.991Z,-0.89
2023-02-26T03:09:30.857Z,-0.91
2023-02-26T03:10:30.415Z,-0.94
2023-02-26T03:11:29.256Z,-1.00
2023-02-26T03:12:29.319Z,-0.95
2023-02-26T03:13:29.273Z,-1.02
2023-02-26T03:14:31.015Z,-0.97
2023-02-26T03:15:35.160Z,-1.00
2023-02-26T03:16:30.880Z,-0.97
2023-02-26T03:17:32.182Z,-1.06
2023-02-26T03:18:29.846Z,-0.99
2023-02-26T03:19:30.152Z,-1.03
2023-02-26T03:20:32.985Z,-0.97
2023-02-26T03:22:36.487Z,-0.94
2023-02-26T03:23:31.356Z,-0.99
2023-02-26T03:24:39.069Z,-1.07
2023-02-26T03:25:33.035Z,-1.03
2023-02-26T03:26:29.448Z,-0.99
2023-02-26T03:27:32.703Z,-0.95
2023-02-26T03:28:29.116Z,-1.03
2023-02-26T03:29:29.169Z,-0.99
2023-02-26T03:30:30.398Z,-0.99
2023-02-26T03:31:33.594Z,-0.97
2023-02-26T03:32:37.092Z,-1.00
2023-02-26T03:33:32.932Z,-0.94
2023-02-26T03:34:31.710Z,-1.02
2023-02-26T03:35:29.852Z,-1.03
2023-02-26T03:36:29.115Z,-1.03
2023-02-26T03:37:30.344Z,-1.10
2023-02-26T03:38:30.104Z,-1.15
2023-02-26T03:39:32.989Z,-1.06
2023-02-26T03:40:29.945Z,-1.20
2023-02-26T03:41:38.349Z,-1.09
2023-02-26T03:42:39.364Z,-1.24
2023-02-26T03:43:33.490Z,-1.23
2023-02-26T03:44:35.099Z,-1.35
2023-02-26T03:45:30.079Z,-1.25
2023-02-26T03:46:29.348Z,-1.39
2023-02-26T03:47:30.140Z,-1.46
2023-02-26T03:48:31.434Z,-1.53
2023-02-26T03:49:28.970Z,-1.54
2023-02-26T03:50:31.035Z,-1.59
2023-02-26T03:51:28.802Z,-1.62
2023-02-26T03:52:31.792Z,-1.57
2023-02-26T03:53:28.877Z,-1.64
2023-02-26T03:54:28.812Z,-1.66
2023-02-26T03:55:33.273Z,-1.75
2023-02-26T03:56:28.904Z,-1.69
2023-02-26T03:57:28.873Z,-1.66
2023-02-26T03:58:29.553Z,-1.64
2023-02-26T03:59:28.820Z,-1.64
2023-02-26T04:00:29.423Z,-1.66
2023-02-26T04:01:28.821Z,-1.62
2023-02-26T04:02:28.910Z,-1.54
2023-02-26T04:03:28.819Z,-1.57
2023-02-26T04:04:29.394Z,-1.56
2023-02-26T04:05:28.947Z,-1.54
2023-02-26T04:06:29.540Z,-1.56
2023-02-26T04:07:28.771Z,-1.56
2023-02-26T04:08:29.458Z,-1.51
2023-02-26T04:09:31.256Z,-1.48
2023-02-26T04:10:30.055Z,-1.64
2023-02-26T04:11:28.630Z,-1.56
2023-02-26T04:12:29.760Z,-1.75
2023-02-26T04:13:28.580Z,-1.66
2023-02-26T04:14:29.887Z,-1.67
2023-02-26T04:15:29.655Z,-1.62
2023-02-26T04:16:30.406Z,-1.64
2023-02-26T04:17:33.921Z,-1.62
2023-02-26T04:18:31.970Z,-1.49
2023-02-26T04:19:32.176Z,-1.48
2023-02-26T04:20:34.358Z,-1.42
2023-02-26T04:21:30.355Z,-1.31
2023-02-26T04:22:28.506Z,-1.24
2023-02-26T04:23:29.521Z,-1.17
2023-02-26T04:24:30.991Z,-1.20
2023-02-26T04:25:34.859Z,-1.13
2023-02-26T04:26:29.562Z,-1.18
2023-02-26T04:27:33.074Z,-1.15
2023-02-26T04:28:34.955Z,-1.23
2023-02-26T04:29:31.284Z,-1.17
2023-02-26T04:30:28.559Z,-1.21
2023-02-26T04:31:38.601Z,-1.28
2023-02-26T04:32:32.613Z,-1.35
2023-02-26T04:33:28.536Z,-1.45
2023-02-26T04:35:36.367Z,-1.42
2023-02-26T04:36:29.885Z,-1.56
2023-02-26T04:37:30.462Z,-1.63
2023-02-26T04:38:28.385Z,-1.57
2023-02-26T04:39:28.354Z,-1.66
2023-02-26T04:40:28.446Z,-1.72
2023-02-26T04:41:31.149Z,-1.72
2023-02-26T04:42:29.641Z,-1.81
2023-02-26T04:43:29.915Z,-1.85
2023-02-26T04:44:28.894Z,-1.84
2023-02-26T04:45:28.710Z,-1.77
2023-02-26T04:46:28.701Z,-1.74
2023-02-26T04:47:28.218Z,-1.70
2023-02-26T04:48:28.276Z,-1.70
2023-02-26T04:49:29.363Z,-1.63
2023-02-26T04:50:31.295Z,-1.51
2023-02-26T04:51:28.858Z,-1.51
2023-02-26T04:52:28.927Z,-1.51
2023-02-26T04:53:30.778Z,-1.49
2023-02-26T04:54:31.327Z,-1.46
2023-02-26T04:55:28.850Z,-1.63
2023-02-26T04:56:29.106Z,-1.53
2023-02-26T04:57:30.968Z,-1.66
2023-02-26T04:58:28.976Z,-1.57
2023-02-26T04:59:29.028Z,-1.63
2023-02-26T05:00:32.857Z,-1.64
2023-02-26T05:01:28.340Z,-1.56
2023-02-26T05:02:28.250Z,-1.53
2023-02-26T05:03:28.141Z,-1.49
2023-02-26T05:04:29.730Z,-1.46
2023-02-26T05:05:35.687Z,-1.48
2023-02-26T05:06:37.036Z,-1.33
2023-02-26T05:07:30.107Z,-1.39
2023-02-26T05:08:31.940Z,-1.25
2023-02-26T05:09:30.585Z,-1.31
2023-02-26T05:10:28.207Z,-1.23
2023-02-26T05:11:30.714Z,-1.10
2023-02-26T05:12:30.564Z,-1.15
2023-02-26T05:13:30.765Z,-1.09
2023-02-26T05:14:28.069Z,-1.06
2023-02-26T05:15:29.505Z,-1.12
2023-02-26T05:16:29.728Z,-0.95
2023-02-26T05:17:29.005Z,-0.97
2023-02-26T05:18:28.178Z,-0.95
2023-02-26T05:19:28.093Z,-1.00
2023-02-26T05:20:42.055Z,-0.91
2023-02-26T05:21:32.570Z,-0.91
2023-02-26T05:22:28.399Z,-0.84
2023-02-26T05:23:29.309Z,-0.89
2023-02-26T05:24:28.068Z,-0.89
2023-02-26T05:25:28.022Z,-0.91
2023-02-26T05:26:28.060Z,-0.92
2023-02-26T05:27:27.860Z,-0.87
2023-02-26T05:28:27.878Z,-0.94
2023-02-26T05:29:29.585Z,-0.83
2023-02-26T05:30:28.397Z,-0.92
2023-02-26T05:31:28.640Z,-0.89
2023-02-26T05:32:27.950Z,-0.95
2023-02-26T05:33:28.550Z,-0.89
2023-02-26T05:34:27.813Z,-0.92
2023-02-26T05:35:30.737Z,-0.87
2023-02-26T05:36:29.388Z,-0.97
2023-02-26T05:37:28.388Z,-1.00
2023-02-26T05:38:27.835Z,-0.95
2023-02-26T05:40:29.372Z,-0.99
2023-02-26T05:41:32.067Z,-1.00
2023-02-26T05:42:32.602Z,-1.00
2023-02-26T05:43:35.599Z,-0.94
2023-02-26T05:44:28.801Z,-0.91
2023-02-26T05:46:34.252Z,-0.92
2023-02-26T05:47:31.731Z,-0.87
2023-02-26T05:48:34.459Z,-0.91
2023-02-26T05:49:35.122Z,-1.03
2023-02-26T05:50:29.937Z,-0.97
2023-02-26T05:51:27.785Z,-0.91
2023-02-26T05:52:29.732Z,-0.86
2023-02-26T05:53:34.212Z,-1.02
2023-02-26T05:54:29.090Z,-0.99
2023-02-26T05:55:29.786Z,-0.91
2023-02-26T05:56:28.934Z,-0.92
2023-02-26T05:57:27.548Z,-0.92
2023-02-26T05:58:31.518Z,-0.83
2023-02-26T05:59:30.257Z,-0.87
2023-02-26T06:00:28.932Z,-0.86
2023-02-26T06:01:27.661Z,-0.81
2023-02-26T06:02:27.508Z,-0.87
2023-02-26T06:03:28.421Z,-0.84
2023-02-26T06:04:28.852Z,-0.81
2023-02-26T06:05:27.615Z,-0.86
2023-02-26T06:06:28.382Z,-0.72
2023-02-26T06:07:27.715Z,-0.72
2023-02-26T06:08:27.878Z,-0.72
2023-02-26T06:09:35.694Z,-0.68
2023-02-26T06:10:29.413Z,-0.73
2023-02-26T06:11:27.541Z,-0.68
2023-02-26T06:12:28.303Z,-0.65
2023-02-26T06:13:27.502Z,-0.72
2023-02-26T06:14:27.354Z,-0.69
2023-02-26T06:15:27.373Z,-0.69
2023-02-26T06:16:27.752Z,-0.63
2023-02-26T06:17:30.402Z,-0.66
2023-02-26T06:18:27.969Z,-0.65
2023-02-26T06:19:28.395Z,-0.65
2023-02-26T06:20:27.327Z,-0.70
2023-02-26T06:21:27.370Z,-0.60
2023-02-26T06:22:27.863Z,-0.65
2023-02-26T06:23:28.492Z,-0.77
2023-02-26T06:24:27.312Z,-0.65
2023-02-26T06:25:27.501Z,-0.55
2023-02-26T06:26:27.583Z,-0.60
2023-02-26T06:27:27.886Z,-0.60
2023-02-26T06:28:27.271Z,-0.69
2023-02-26T06:29:27.989Z,-0.65
2023-02-26T06:30:27.301Z,-0.66
2023-02-26T06:31:28.306Z,-0.60
2023-02-26T06:32:30.211Z,-0.57
2023-02-26T06:33:27.300Z,-0.55
2023-02-26T06:34:28.686Z,-0.54
2023-02-26T06:35:27.284Z,-0.57
2023-02-26T06:36:28.054Z,-0.54
2023-02-26T06:37:27.327Z,-0.63
2023-02-26T06:38:27.193Z,-0.45
2023-02-26T06:39:27.212Z,-0.59
2023-02-26T06:40:27.175Z,-0.59
2023-02-26T06:41:27.218Z,-0.57
2023-02-26T06:42:28.086Z,-0.52
2023-02-26T06:43:28.025Z,-0.55
2023-02-26T06:44:27.142Z,-0.60
2023-02-26T06:45:27.069Z,-0.62
2023-02-26T06:46:28.067Z,-0.55
2023-02-26T06:47:27.173Z,-0.55
2023-02-26T06:48:27.874Z,-0.48
2023-02-26T06:49:27.230Z,-0.50
2023-02-26T06:50:27.042Z,-0.50
2023-02-26T06:51:27.021Z,-0.41
2023-02-26T06:52:27.140Z,-0.44
2023-02-26T06:53:26.971Z,-0.47
2023-02-26T06:54:38.518Z,-0.55
2023-02-26T06:55:28.473Z,-0.51
2023-02-26T06:56:32.239Z,-0.48
2023-02-26T06:57:28.177Z,-0.45
2023-02-26T06:58:26.955Z,-0.48
2023-02-26T07:00:41.025Z,-0.48
2023-02-26T07:01:28.049Z,-0.37
2023-02-26T07:02:27.309Z,-0.41
2023-02-26T07:03:26.911Z,-0.30
2023-02-26T07:04:26.946Z,-0.39
2023-02-26T07:05:26.821Z,-0.31
2023-02-26T07:06:38.356Z,-0.31
2023-02-26T07:07:27.860Z,-0.26
2023-02-26T07:08:27.518Z,-0.31
2023-02-26T07:09:33.803Z,-0.31
2023-02-26T07:10:27.744Z,-0.22
2023-02-26T07:11:26.763Z,-0.18
2023-02-26T07:12:28.464Z,-0.13
2023-02-26T07:13:28.778Z,-0.16
2023-02-26T07:14:30.857Z,-0.13
2023-02-26T07:15:26.849Z,-0.16
2023-02-26T07:16:28.784Z,-0.18
2023-02-26T07:17:29.124Z,-0.09
2023-02-26T07:18:26.769Z,-0.15
2023-02-26T07:19:34.453Z,-0.05
2023-02-26T07:20:27.692Z,-0.05
2023-02-26T07:21:37.140Z,-0.09
2023-02-26T07:22:33.321Z,-0.06
2023-02-26T07:23:30.649Z,-0.05
2023-02-26T07:24:27.608Z,-0.16
2023-02-26T07:25:26.594Z,-0.01
2023-02-26T07:26:33.545Z,-0.04
2023-02-26T07:27:26.741Z,-0.01
2023-02-26T07:28:26.699Z,0.10
2023-02-26T07:29:27.457Z,0.07
2023-02-26T07:30:26.631Z,0.16
2023-02-26T07:31:27.639Z,0.15
2023-02-26T07:32:27.631Z,0.05
2023-02-26T07:33:26.802Z,0.25
2023-02-26T07:34:27.725Z,0.20
2023-02-26T07:35:26.675Z,0.27
2023-02-26T07:36:26.869Z,0.27
2023-02-26T07:37:26.580Z,0.21
2023-02-26T07:38:27.383Z,0.20
2023-02-26T07:39:26.773Z,0.27
2023-02-26T07:40:27.427Z,0.25
2023-02-26T07:41:26.428Z,0.27
2023-02-26T07:42:26.464Z,0.39
2023-02-26T07:43:26.417Z,0.28
2023-02-26T07:44:26.391Z,0.33
2023-02-26T07:45:26.384Z,0.28
2023-02-26T07:46:26.798Z,0.21
2023-02-26T07:47:26.394Z,0.28
2023-02-26T07:48:26.376Z,0.28
2023-02-26T07:49:26.354Z,0.27
2023-02-26T07:50:26.510Z,0.27
2023-02-26T07:51:26.620Z,0.45
2023-02-26T07:52:26.304Z,0.43
2023-02-26T07:53:26.329Z,0.57
2023-02-26T07:54:26.944Z,0.60
2023-02-26T07:55:26.276Z,0.70
2023-02-26T07:56:26.636Z,0.71
2023-02-26T07:57:26.323Z,0.80
2023-02-26T07:58:26.272Z,0.79
2023-02-26T07:59:26.232Z,0.88
2023-02-26T08:00:26.256Z,0.86
2023-02-26T08:01:26.262Z,0.88
2023-02-26T08:02:26.218Z,0.86
2023-02-26T08:03:26.211Z,0.89
2023-02-26T08:04:26.206Z,0.90
2023-02-26T08:05:27.753Z,0.86
2023-02-26T08:06:26.652Z,0.98
2023-02-26T08:07:26.152Z,0.98
2023-02-26T08:08:26.153Z,0.97
2023-02-26T08:09:26.130Z,1.08
2023-02-26T08:10:26.253Z,1.01
2023-02-26T08:11:26.166Z,1.29
2023-02-26T08:12:26.175Z,1.42
2023-02-26T08:13:26.095Z,1.42
2023-02-26T08:14:26.076Z,1.40
2023-02-26T08:15:26.116Z,1.34
2023-02-26T08:16:26.442Z,1.58
2023-02-26T08:17:26.054Z,1.64
2023-02-26T08:18:26.051Z,1.68
2023-02-26T08:19:26.029Z,1.54
2023-02-26T08:20:26.031Z,1.54
2023-02-26T08:21:26.007Z,1.40
2023-02-26T08:22:26.006Z,1.54
2023-02-26T08:23:26.037Z,1.57
2023-02-26T08:24:26.890Z,1.46
2023-02-26T08:25:26.024Z,1.40
2023-02-26T08:26:26.338Z,1.29
2023-02-26T08:27:29.604Z,1.44
2023-02-26T08:28:27.009Z,1.51
2023-02-26T08:29:25.915Z,1.46
2023-02-26T08:30:25.975Z,1.29
2023-02-26T08:31:26.042Z,1.46
2023-02-26T08:32:25.948Z,1.51
2023-02-26T08:33:25.891Z,1.46
2023-02-26T08:34:25.895Z,1.50
2023-02-26T08:35:25.876Z,1.42
2023-02-26T08:36:26.159Z,1.34
2023-02-26T08:37:25.960Z,1.24
2023-02-26T08:38:25.999Z,1.08
2023-02-26T08:39:25.865Z,1.00
2023-02-26T08:40:25.870Z,1.07
2023-02-26T08:41:26.103Z,0.98
2023-02-26T08:42:25.811Z,0.92
2023-02-26T08:43:25.846Z,0.98
2023-02-26T08:44:25.817Z,0.98
2023-02-26T08:45:31.482Z,0.97
2023-02-26T08:46:27.189Z,1.00
2023-02-26T08:47:29.120Z,1.18
2023-02-26T08:48:25.876Z,1.21
2023-02-26T08:49:25.744Z,1.12
2023-02-26T08:50:25.814Z,1.24
2023-02-26T08:51:26.068Z,1.29
2023-02-26T08:52:25.795Z,1.34
2023-02-26T08:53:25.676Z,1.42
2023-02-26T08:54:25.792Z,1.28
2023-02-26T08:55:25.712Z,1.36
2023-02-26T08:56:37.180Z,1.24
2023-02-26T08:57:26.776Z,1.34
2023-02-26T08:58:25.625Z,1.29
2023-02-26T08:59:26.516Z,1.40
2023-02-26T09:00:26.396Z,1.39
2023-02-26T09:01:26.054Z,1.46
2023-02-26T09:02:25.774Z,1.60
2023-02-26T09:03:25.574Z,1.75
2023-02-26T09:04:26.419Z,1.73
2023-02-26T09:05:25.750Z,1.90
2023-02-26T09:06:25.851Z,2.12
2023-02-26T09:07:25.839Z,2.23
2023-02-26T09:08:25.579Z,2.31
2023-02-26T09:09:25.677Z,2.38
2023-02-26T09:10:36.700Z,2.41
2023-02-26T09:11:26.994Z,2.49
2023-02-26T09:12:26.496Z,3.05
2023-02-26T09:13:25.701Z,3.13
2023-02-26T09:14:27.454Z,3.02
2023-02-26T09:15:25.734Z,2.91
2023-02-26T09:16:25.925Z,2.97
2023-02-26T09:17:25.488Z,3.00
2023-02-26T09:18:25.558Z,3.00
2023-02-26T09:19:25.571Z,3.12
2023-02-26T09:20:25.444Z,3.20
2023-02-26T09:21:25.506Z,3.10
2023-02-26T09:22:25.419Z,2.98
2023-02-26T09:23:25.431Z,2.92
2023-02-26T09:24:25.704Z,3.09
2023-02-26T09:25:25.604Z,3.44
2023-02-26T09:26:25.777Z,3.80
2023-02-26T09:27:25.405Z,3.96
2023-02-26T09:28:25.444Z,3.80
2023-02-26T09:29:30.715Z,3.96
2023-02-26T09:30:25.357Z,3.90
2023-02-26T09:31:25.447Z,3.75
2023-02-26T09:32:26.086Z,3.71
2023-02-26T09:33:26.789Z,3.70
2023-02-26T09:34:39.455Z,3.65
2023-02-26T09:35:26.414Z,3.46
2023-02-26T09:36:29.221Z,3.30
2023-02-26T09:37:25.903Z,3.06
2023-02-26T09:38:31.191Z,3.09
2023-02-26T09:39:25.396Z,3.05
2023-02-26T09:40:28.385Z,3.00
2023-02-26T09:41:25.422Z,2.94
2023-02-26T09:42:25.905Z,2.81
2023-02-26T09:43:25.911Z,2.84
2023-02-26T09:44:25.376Z,2.73
2023-02-26T09:45:25.288Z,2.69
2023-02-26T09:46:25.639Z,2.77
2023-02-26T09:47:25.208Z,2.64
2023-02-26T09:48:25.258Z,2.59
2023-02-26T09:49:25.176Z,2.49
2023-02-26T09:50:33.605Z,2.52
2023-02-26T09:51:26.081Z,2.48
2023-02-26T09:52:25.079Z,2.51
2023-02-26T09:53:25.080Z,2.48
2023-02-26T09:54:25.067Z,2.37
2023-02-26T09:55:25.062Z,2.41
2023-02-26T09:56:25.431Z,2.41
2023-02-26T09:57:25.008Z,2.48
2023-02-26T09:58:25.013Z,2.55
2023-02-26T09:59:24.999Z,2.76
2023-02-26T10:00:24.991Z,2.69
2023-02-26T10:01:24.966Z,2.74
2023-02-26T10:02:24.957Z,2.82
2023-02-26T10:03:24.948Z,2.91
2023-02-26T10:04:25.025Z,2.88
2023-02-26T10:05:24.942Z,2.92
2023-02-26T10:06:25.367Z,2.87
2023-02-26T10:07:24.908Z,2.84
2023-02-26T10:08:24.912Z,2.82
2023-02-26T10:09:47.396Z,2.84
2023-02-26T10:11:01.973Z,2.97
2023-02-26T10:11:24.874Z,2.98
2023-02-26T10:12:24.879Z,2.91
2023-02-26T10:14:33.522Z,2.82
2023-02-26T10:15:25.197Z,2.85
2023-02-26T10:16:25.094Z,3.05
2023-02-26T10:17:24.804Z,2.95
2023-02-26T10:18:24.792Z,2.95
2023-02-26T10:19:26.780Z,2.85
2023-02-26T10:20:26.494Z,2.84
2023-02-26T10:21:28.235Z,2.81
2023-02-26T10:22:30.062Z,2.88
2023-02-26T10:24:52.142Z,2.97
2023-02-26T10:25:52.219Z,2.87
2023-02-26T10:26:52.119Z,2.92
2023-02-26T10:27:52.113Z,2.82
2023-02-26T10:28:52.109Z,2.92
2023-02-26T10:29:52.124Z,2.89
2023-02-26T10:30:52.108Z,2.94
2023-02-26T10:31:52.190Z,3.05
2023-02-26T10:32:52.108Z,3.09
2023-02-26T10:33:52.053Z,3.13
2023-02-26T10:34:52.985Z,3.25
2023-02-26T10:35:52.039Z,3.18
2023-02-26T10:36:52.014Z,3.40
2023-02-26T10:37:52.001Z,3.44
2023-02-26T10:38:51.987Z,3.57
2023-02-26T10:39:51.980Z,3.60
2023-02-26T10:40:51.989Z,3.78
2023-02-26T10:41:51.953Z,3.70
2023-02-26T10:42:51.965Z,3.62
2023-02-26T10:43:51.932Z,3.50
2023-02-26T10:44:51.928Z,3.49
2023-02-26T10:45:51.969Z,3.40
2023-02-26T10:46:51.919Z,3.30
2023-02-26T10:47:51.897Z,3.31
2023-02-26T10:48:51.881Z,3.25
2023-02-26T10:49:51.890Z,3.05
2023-02-26T10:50:51.893Z,3.15
2023-02-26T10:51:51.858Z,3.07
2023-02-26T10:52:51.844Z,3.07
2023-02-26T10:53:51.935Z,3.05
2023-02-26T10:54:51.814Z,3.07
2023-02-26T10:55:51.822Z,3.07
2023-02-26T10:56:51.812Z,3.03
2023-02-26T10:57:51.789Z,2.92
2023-02-26T10:58:51.775Z,2.87
2023-02-26T10:59:51.902Z,2.87
2023-02-26T11:00:51.860Z,2.91
2023-02-26T11:01:51.758Z,2.97
2023-02-26T11:02:51.747Z,2.97
2023-02-26T11:03:51.796Z,3.03
2023-02-26T11:04:59.259Z,2.85
2023-02-26T11:05:52.724Z,2.79
2023-02-26T11:06:51.716Z,2.94
2023-02-26T11:07:51.697Z,3.09
2023-02-26T11:08:51.705Z,3.12
2023-02-26T11:09:51.680Z,4.52
2023-02-26T11:10:51.689Z,5.22
2023-02-26T11:11:51.647Z,5.12
2023-02-26T11:12:51.674Z,4.80
2023-02-26T11:13:51.644Z,4.44
2023-02-26T11:14:51.629Z,4.33
2023-02-26T11:15:51.721Z,4.12
2023-02-26T11:16:51.608Z,3.80
2023-02-26T11:17:51.600Z,3.75
2023-02-26T11:18:51.584Z,3.53
2023-02-26T11:19:51.569Z,3.42
2023-02-26T11:20:51.567Z,3.25
2023-02-26T11:21:51.563Z,3.10
2023-02-26T11:22:51.549Z,3.05
2023-02-26T11:23:51.526Z,2.89
2023-02-26T11:24:51.520Z,2.98
2023-02-26T11:25:51.518Z,2.84
2023-02-26T11:26:51.499Z,2.84
2023-02-26T11:27:51.514Z,2.94
2023-02-26T11:28:51.472Z,4.21
2023-02-26T11:29:51.463Z,5.09
2023-02-26T11:30:51.620Z,6.76
2023-02-26T11:31:51.605Z,8.04
2023-02-26T11:32:51.474Z,8.10
2023-02-26T11:33:51.416Z,9.13
2023-02-26T11:34:51.425Z,10.18
2023-02-26T11:35:51.413Z,10.74
2023-02-26T11:36:51.386Z,10.99
2023-02-26T11:37:51.385Z,10.60
2023-02-26T11:38:51.372Z,9.45
2023-02-26T11:39:51.351Z,8.18
2023-02-26T11:40:51.342Z,6.83
2023-02-26T11:41:51.343Z,6.07
2023-02-26T11:42:51.403Z,5.77
2023-02-26T11:43:52.281Z,5.46
2023-02-26T11:44:51.303Z,5.07
2023-02-26T11:45:51.340Z,4.80
2023-02-26T11:46:52.080Z,4.65
2023-02-26T11:47:51.291Z,4.42
2023-02-26T11:48:51.274Z,4.29
2023-02-26T11:49:51.260Z,4.03
2023-02-26T11:50:51.238Z,3.85
2023-02-26T11:51:51.241Z,3.83
2023-02-26T11:52:51.223Z,3.86
2023-02-26T11:53:51.308Z,3.86
2023-02-26T11:54:51.334Z,3.67
2023-02-26T11:56:04.246Z,3.72
2023-02-26T11:58:09.693Z,4.04
2023-02-26T12:00:03.493Z,5.75
2023-02-26T12:01:01.995Z,7.08
2023-02-26T12:02:12.481Z,8.17
2023-02-26T12:05:00.388Z,11.65
2023-02-26T12:05:51.074Z,11.99
2023-02-26T12:06:51.076Z,12.56
2023-02-26T12:07:51.817Z,12.64
2023-02-26T12:08:51.046Z,13.15
2023-02-26T12:09:51.174Z,13.40
2023-02-26T12:10:51.036Z,13.65
2023-02-26T12:11:51.026Z,12.84
2023-02-26T12:12:51.002Z,13.04
2023-02-26T12:13:51.022Z,12.88
2023-02-26T12:14:52.037Z,11.77
2023-02-26T12:15:51.034Z,10.66
2023-02-26T12:16:50.969Z,9.40
2023-02-26T12:17:50.989Z,8.55
2023-02-26T12:18:50.978Z,7.67
2023-02-26T12:19:50.936Z,7.50
2023-02-26T12:20:50.919Z,6.84
2023-02-26T12:21:50.920Z,6.61
2023-02-26T12:22:50.906Z,6.54
2023-02-26T12:23:50.887Z,6.29
2023-02-26T12:24:50.891Z,6.25
2023-02-26T12:25:50.868Z,6.13
2023-02-26T12:26:50.875Z,6.16
2023-02-26T12:27:50.851Z,6.13
2023-02-26T12:28:50.845Z,6.06
2023-02-26T12:29:50.845Z,6.04
2023-02-26T12:30:50.851Z,5.96
2023-02-26T12:31:50.873Z,5.86
2023-02-26T12:32:50.804Z,5.91
2023-02-26T12:33:50.791Z,5.82
2023-02-26T12:34:50.777Z,6.03
2023-02-26T12:35:50.767Z,6.09
2023-02-26T12:36:50.774Z,6.11
2023-02-26T12:37:50.744Z,6.50
2023-02-26T12:38:50.736Z,6.54
2023-02-26T12:39:50.728Z,6.91
2023-02-26T12:40:50.739Z,6.79
2023-02-26T12:41:50.715Z,6.63
2023-02-26T12:42:50.711Z,6.38
2023-02-26T12:43:50.697Z,5.93
2023-02-26T12:44:50.682Z,5.75
2023-02-26T12:45:50.660Z,5.64
2023-02-26T12:46:50.740Z,5.60
2023-02-26T12:47:50.641Z,5.88
2023-02-26T12:48:51.605Z,7.40
2023-02-26T12:49:50.616Z,8.18
2023-02-26T12:50:50.605Z,8.15
2023-02-26T12:51:50.615Z,8.60
2023-02-26T12:52:50.595Z,9.05
2023-02-26T12:53:50.579Z,8.99
2023-02-26T12:54:50.610Z,9.71
2023-02-26T12:55:50.556Z,9.46
2023-02-26T12:56:50.566Z,8.58
2023-02-26T12:57:50.536Z,7.81
2023-02-26T12:58:50.528Z,7.44
2023-02-26T12:59:50.516Z,7.24
2023-02-26T13:00:50.529Z,7.02
2023-02-26T13:02:00.390Z,6.80
2023-02-26T13:02:51.513Z,6.54
2023-02-26T13:03:50.540Z,6.43
2023-02-26T13:04:50.492Z,6.47
2023-02-26T13:05:50.459Z,6.07
2023-02-26T13:06:50.443Z,6.01
2023-02-26T13:07:50.443Z,6.01
2023-02-26T13:08:50.421Z,5.67
2023-02-26T13:09:50.411Z,5.30
2023-02-26T13:10:50.402Z,5.20
2023-02-26T13:11:50.387Z,5.17
2023-02-26T13:12:50.407Z,5.16
2023-02-26T13:13:50.365Z,5.09
2023-02-26T13:14:50.362Z,4.88
2023-02-26T13:15:50.353Z,4.75
2023-02-26T13:16:50.343Z,4.72
2023-02-26T13:17:50.340Z,4.69
2023-02-26T13:18:50.323Z,4.83
2023-02-26T13:19:50.306Z,4.84
2023-02-26T13:20:50.300Z,4.91
2023-02-26T13:21:50.282Z,4.98
2023-02-26T13:22:50.291Z,4.98
2023-02-26T13:23:50.262Z,4.99
2023-02-26T13:24:50.259Z,4.99
2023-02-26T13:25:50.239Z,4.98
2023-02-26T13:26:50.235Z,5.01
2023-02-26T13:27:50.235Z,5.05
2023-02-26T13:28:50.215Z,5.77
2023-02-26T13:29:50.209Z,5.60
2023-02-26T13:30:50.217Z,5.66
2023-02-26T13:31:50.321Z,5.57
2023-02-26T13:32:50.236Z,5.71
2023-02-26T13:33:50.185Z,5.30
2023-02-26T13:34:50.163Z,4.95
2023-02-26T13:35:50.136Z,4.83
2023-02-26T13:36:50.157Z,4.95
2023-02-26T13:37:50.140Z,5.10
2023-02-26T13:38:50.139Z,5.30
2023-02-26T13:39:50.089Z,5.48
2023-02-26T13:40:50.105Z,5.35
2023-02-26T13:41:50.075Z,5.63
2023-02-26T13:42:50.075Z,6.22